Main page
METAR-TAF:

METAR-TAF

Airports :

Imphal International Airport

Imphal, India

latitude: 24-45-36N, longitude: 93-53-48E, elevation: 774 m

Current weather observation

The report was made 28 minutes ago, at 08:00 UTC
Wind 5 kt from the South
Temperature 29°C
Humidity 70%
Pressure 1005 hPa
Visibility: 6000 m
Scattered clouds at a height of 1800 ft
Broken clouds at a height of 10000 ft

METAR: VEIM 300800Z 18005KT 6000 SCT018 BKN100 29/23 Q1005 NOSIG

Time: 13:58 (08:28 UTC)

Forecast

The report was made 3 hours and 28 minutes ago, at 05:00 UTC
Forecast valid from 30 at 06 UTC to 30 at 15 UTC
Wind 6 kt from the West/Northwest
Visibility: 5000 m
Scattered clouds at a height of 1800 ft
Broken clouds at a height of 10000 ft
haze
Becoming
from 30 at 13 UTC to 30 at 15 UTC
Wind kt from the North
Visibility: 3000 m
Scattered clouds at a height of 1800 ft
Broken clouds at a height of 10000 ft
mist

TAF: VEIM 300500Z 3006/3015 29006KT 5000 HZ SCT018 BKN100 BECMG 3013/3015 00000KT 3000 BR SCT018 BKN100

Weather observations and forecasts of more than 4000 airports (METAR and TAF reports).

The available stations are represented by yellow and red dots on the map.

Hover mouse over dot to see the name of the station.

Then click to see weather observations and forecasts.

To change the map : click on the green buttons with a black cross to zoom in, on the green button with a dash to zoom out, or on the green arrows for adjacent maps.


METAR-TAF: